sensor_id;sensor_type;location;lat;lon;timestamp;P1;durP1;ratioP1;P2;durP2;ratioP2
75930;SDS011;64609;47.052;15.462;2022-12-18T00:03:58;37.25;;;23.45;;
75930;SDS011;64609;47.052;15.462;2022-12-18T00:06:25;37.22;;;23.58;;
75930;SDS011;64609;47.052;15.462;2022-12-18T00:08:52;40.88;;;24.73;;
75930;SDS011;64609;47.052;15.462;2022-12-18T00:11:20;37.60;;;23.27;;
75930;SDS011;64609;47.052;15.462;2022-12-18T00:13:47;40.20;;;24.20;;
75930;SDS011;64609;47.052;15.462;2022-12-18T00:16:14;37.40;;;23.70;;
75930;SDS011;64609;47.052;15.462;2022-12-18T00:18:43;39.72;;;24.20;;
75930;SDS011;64609;47.052;15.462;2022-12-18T00:21:09;39.30;;;23.63;;
75930;SDS011;64609;47.052;15.462;2022-12-18T00:23:36;36.40;;;22.65;;
75930;SDS011;64609;47.052;15.462;2022-12-18T00:26:06;36.05;;;21.88;;
75930;SDS011;64609;47.052;15.462;2022-12-18T00:28:35;36.03;;;22.13;;
75930;SDS011;64609;47.052;15.462;2022-12-18T00:31:04;38.05;;;21.52;;
75930;SDS011;64609;47.052;15.462;2022-12-18T00:33:32;34.97;;;20.80;;
75930;SDS011;64609;47.052;15.462;2022-12-18T00:36:02;34.03;;;19.80;;
75930;SDS011;64609;47.052;15.462;2022-12-18T00:38:32;36.15;;;20.20;;
75930;SDS011;64609;47.052;15.462;2022-12-18T00:40:59;36.30;;;19.55;;
75930;SDS011;64609;47.052;15.462;2022-12-18T00:43:25;32.50;;;19.05;;
75930;SDS011;64609;47.052;15.462;2022-12-18T00:45:50;34.25;;;20.20;;
75930;SDS011;64609;47.052;15.462;2022-12-18T00:48:16;35.25;;;20.45;;
75930;SDS011;64609;47.052;15.462;2022-12-18T00:50:42;31.92;;;20.08;;
75930;SDS011;64609;47.052;15.462;2022-12-18T00:53:11;33.63;;;20.50;;
75930;SDS011;64609;47.052;15.462;2022-12-18T00:55:37;35.05;;;21.58;;
75930;SDS011;64609;47.052;15.462;2022-12-18T00:58:04;41.42;;;23.27;;
75930;SDS011;64609;47.052;15.462;2022-12-18T01:00:30;33.10;;;21.73;;
75930;SDS011;64609;47.052;15.462;2022-12-18T01:02:55;32.38;;;19.92;;
75930;SDS011;64609;47.052;15.462;2022-12-18T01:05:21;29.15;;;17.90;;
75930;SDS011;64609;47.052;15.462;2022-12-18T01:07:46;29.52;;;19.25;;
75930;SDS011;64609;47.052;15.462;2022-12-18T01:10:12;31.50;;;19.92;;
75930;SDS011;64609;47.052;15.462;2022-12-18T01:12:38;35.03;;;20.23;;
75930;SDS011;64609;47.052;15.462;2022-12-18T01:15:05;32.28;;;19.38;;
75930;SDS011;64609;47.052;15.462;2022-12-18T01:17:31;29.23;;;18.45;;
75930;SDS011;64609;47.052;15.462;2022-12-18T01:19:57;30.65;;;18.63;;
75930;SDS011;64609;47.052;15.462;2022-12-18T01:22:23;28.30;;;18.90;;
75930;SDS011;64609;47.052;15.462;2022-12-18T01:24:49;32.78;;;19.00;;
75930;SDS011;64609;47.052;15.462;2022-12-18T01:27:14;31.08;;;18.80;;
75930;SDS011;64609;47.052;15.462;2022-12-18T01:29:40;27.73;;;18.00;;
75930;SDS011;64609;47.052;15.462;2022-12-18T01:32:06;32.30;;;18.83;;
75930;SDS011;64609;47.052;15.462;2022-12-18T01:34:32;32.08;;;19.23;;
75930;SDS011;64609;47.052;15.462;2022-12-18T01:37:01;28.45;;;17.92;;
75930;SDS011;64609;47.052;15.462;2022-12-18T01:39:28;31.95;;;19.60;;
75930;SDS011;64609;47.052;15.462;2022-12-18T01:41:54;29.67;;;19.30;;
75930;SDS011;64609;47.052;15.462;2022-12-18T01:47:36;28.65;;;16.80;;
75930;SDS011;64609;47.052;15.462;2022-12-18T01:50:08;28.63;;;18.17;;
75930;SDS011;64609;47.052;15.462;2022-12-18T01:52:41;27.80;;;17.52;;
75930;SDS011;64609;47.052;15.462;2022-12-18T01:55:09;30.92;;;18.70;;
75930;SDS011;64609;47.052;15.462;2022-12-18T01:57:36;27.50;;;16.70;;
75930;SDS011;64609;47.052;15.462;2022-12-18T02:00:05;28.60;;;18.17;;
75930;SDS011;64609;47.052;15.462;2022-12-18T02:02:40;26.55;;;17.52;;
75930;SDS011;64609;47.052;15.462;2022-12-18T02:05:06;30.10;;;18.67;;
75930;SDS011;64609;47.052;15.462;2022-12-18T02:07:49;28.20;;;18.25;;
75930;SDS011;64609;47.052;15.462;2022-12-18T02:13:13;29.58;;;18.58;;
75930;SDS011;64609;47.052;15.462;2022-12-18T02:18:43;29.92;;;17.85;;
75930;SDS011;64609;47.052;15.462;2022-12-18T02:26:41;28.08;;;17.52;;
75930;SDS011;64609;47.052;15.462;2022-12-18T02:29:16;31.40;;;17.52;;
75930;SDS011;64609;47.052;15.462;2022-12-18T02:31:52;33.28;;;17.85;;
75930;SDS011;64609;47.052;15.462;2022-12-18T02:34:22;26.88;;;16.63;;
75930;SDS011;64609;47.052;15.462;2022-12-18T02:36:51;29.83;;;16.55;;
75930;SDS011;64609;47.052;15.462;2022-12-18T02:39:19;28.33;;;17.30;;
75930;SDS011;64609;47.052;15.462;2022-12-18T02:41:46;31.80;;;17.10;;
75930;SDS011;64609;47.052;15.462;2022-12-18T02:44:13;31.13;;;17.98;;
75930;SDS011;64609;47.052;15.462;2022-12-18T02:46:41;28.55;;;16.70;;
75930;SDS011;64609;47.052;15.462;2022-12-18T03:00:29;28.77;;;16.02;;
75930;SDS011;64609;47.052;15.462;2022-12-18T03:03:29;25.17;;;16.38;;
75930;SDS011;64609;47.052;15.462;2022-12-18T03:06:02;27.67;;;15.70;;
75930;SDS011;64609;47.052;15.462;2022-12-18T03:08:31;29.95;;;17.33;;
75930;SDS011;64609;47.052;15.462;2022-12-18T03:11:18;28.23;;;16.63;;
75930;SDS011;64609;47.052;15.462;2022-12-18T03:14:04;27.83;;;16.60;;
75930;SDS011;64609;47.052;15.462;2022-12-18T03:16:32;28.33;;;16.83;;
75930;SDS011;64609;47.052;15.462;2022-12-18T03:19:05;27.13;;;16.52;;
75930;SDS011;64609;47.052;15.462;2022-12-18T03:21:39;27.10;;;16.75;;
75930;SDS011;64609;47.052;15.462;2022-12-18T03:24:09;31.05;;;17.27;;
75930;SDS011;64609;47.052;15.462;2022-12-18T03:26:36;30.23;;;16.25;;
75930;SDS011;64609;47.052;15.462;2022-12-18T03:29:09;25.42;;;15.73;;
75930;SDS011;64609;47.052;15.462;2022-12-18T03:31:51;23.02;;;14.45;;
75930;SDS011;64609;47.052;15.462;2022-12-18T03:34:22;25.35;;;16.08;;
75930;SDS011;64609;47.052;15.462;2022-12-18T03:36:53;25.83;;;15.48;;
75930;SDS011;64609;47.052;15.462;2022-12-18T03:39:19;23.48;;;15.15;;
75930;SDS011;64609;47.052;15.462;2022-12-18T03:42:05;26.23;;;16.58;;
75930;SDS011;64609;47.052;15.462;2022-12-18T03:44:36;27.23;;;16.08;;
75930;SDS011;64609;47.052;15.462;2022-12-18T03:47:27;26.77;;;16.02;;
75930;SDS011;64609;47.052;15.462;2022-12-18T03:50:03;26.70;;;16.60;;
75930;SDS011;64609;47.052;15.462;2022-12-18T03:53:09;26.23;;;14.63;;
75930;SDS011;64609;47.052;15.462;2022-12-18T03:55:42;27.70;;;15.52;;
75930;SDS011;64609;47.052;15.462;2022-12-18T03:58:08;26.35;;;15.70;;
75930;SDS011;64609;47.052;15.462;2022-12-18T04:00:39;28.08;;;15.77;;
75930;SDS011;64609;47.052;15.462;2022-12-18T04:03:06;26.60;;;15.25;;
75930;SDS011;64609;47.052;15.462;2022-12-18T04:05:34;24.60;;;15.23;;
75930;SDS011;64609;47.052;15.462;2022-12-18T04:08:02;25.60;;;14.90;;
75930;SDS011;64609;47.052;15.462;2022-12-18T04:10:28;24.95;;;14.32;;
75930;SDS011;64609;47.052;15.462;2022-12-18T04:12:57;24.52;;;15.00;;
75930;SDS011;64609;47.052;15.462;2022-12-18T04:15:23;24.92;;;15.27;;
75930;SDS011;64609;47.052;15.462;2022-12-18T04:17:49;22.58;;;14.40;;
75930;SDS011;64609;47.052;15.462;2022-12-18T04:20:15;24.60;;;15.10;;
75930;SDS011;64609;47.052;15.462;2022-12-18T04:22:41;25.05;;;14.32;;
75930;SDS011;64609;47.052;15.462;2022-12-18T04:25:07;24.77;;;15.43;;
75930;SDS011;64609;47.052;15.462;2022-12-18T04:27:36;27.42;;;15.55;;
75930;SDS011;64609;47.052;15.462;2022-12-18T04:30:02;23.27;;;14.60;;
75930;SDS011;64609;47.052;15.462;2022-12-18T04:32:28;33.55;;;17.75;;
75930;SDS011;64609;47.052;15.462;2022-12-18T04:34:53;31.63;;;18.35;;
75930;SDS011;64609;47.052;15.462;2022-12-18T04:37:19;30.85;;;17.48;;
75930;SDS011;64609;47.052;15.462;2022-12-18T04:39:44;29.15;;;17.38;;
75930;SDS011;64609;47.052;15.462;2022-12-18T04:42:10;26.52;;;15.93;;
75930;SDS011;64609;47.052;15.462;2022-12-18T04:44:36;31.70;;;17.52;;
75930;SDS011;64609;47.052;15.462;2022-12-18T04:47:01;30.58;;;17.25;;
75930;SDS011;64609;47.052;15.462;2022-12-18T04:49:27;32.50;;;17.70;;
75930;SDS011;64609;47.052;15.462;2022-12-18T04:51:53;31.70;;;16.75;;
75930;SDS011;64609;47.052;15.462;2022-12-18T04:54:21;33.55;;;17.02;;
75930;SDS011;64609;47.052;15.462;2022-12-18T04:56:47;31.02;;;15.55;;
75930;SDS011;64609;47.052;15.462;2022-12-18T04:59:12;28.10;;;16.67;;
75930;SDS011;64609;47.052;15.462;2022-12-18T05:01:38;28.15;;;15.93;;
75930;SDS011;64609;47.052;15.462;2022-12-18T05:04:04;29.25;;;16.38;;
75930;SDS011;64609;47.052;15.462;2022-12-18T05:06:29;23.63;;;14.55;;
75930;SDS011;64609;47.052;15.462;2022-12-18T05:08:55;30.05;;;16.95;;
75930;SDS011;64609;47.052;15.462;2022-12-18T05:11:21;32.92;;;17.92;;
75930;SDS011;64609;47.052;15.462;2022-12-18T05:13:46;29.42;;;17.65;;
75930;SDS011;64609;47.052;15.462;2022-12-18T05:16:12;44.08;;;22.23;;
75930;SDS011;64609;47.052;15.462;2022-12-18T05:18:38;38.55;;;21.55;;
75930;SDS011;64609;47.052;15.462;2022-12-18T05:21:04;37.75;;;21.00;;
75930;SDS011;64609;47.052;15.462;2022-12-18T05:23:30;35.00;;;19.58;;
75930;SDS011;64609;47.052;15.462;2022-12-18T05:26:01;37.50;;;20.17;;
75930;SDS011;64609;47.052;15.462;2022-12-18T05:28:29;41.20;;;21.67;;
75930;SDS011;64609;47.052;15.462;2022-12-18T05:30:57;36.63;;;20.02;;
75930;SDS011;64609;47.052;15.462;2022-12-18T05:33:24;36.40;;;19.85;;
75930;SDS011;64609;47.052;15.462;2022-12-18T05:35:52;34.75;;;20.10;;
75930;SDS011;64609;47.052;15.462;2022-12-18T05:38:19;38.72;;;21.15;;
75930;SDS011;64609;47.052;15.462;2022-12-18T05:40:46;41.50;;;21.83;;
75930;SDS011;64609;47.052;15.462;2022-12-18T05:43:12;38.97;;;20.65;;
75930;SDS011;64609;47.052;15.462;2022-12-18T05:45:38;40.60;;;21.35;;
75930;SDS011;64609;47.052;15.462;2022-12-18T05:48:04;56.17;;;21.83;;
75930;SDS011;64609;47.052;15.462;2022-12-18T05:50:33;36.78;;;19.58;;
75930;SDS011;64609;47.052;15.462;2022-12-18T05:53:03;37.05;;;19.42;;
75930;SDS011;64609;47.052;15.462;2022-12-18T05:55:29;48.10;;;20.05;;
75930;SDS011;64609;47.052;15.462;2022-12-18T05:57:57;39.33;;;20.40;;
75930;SDS011;64609;47.052;15.462;2022-12-18T06:00:24;40.38;;;19.50;;
75930;SDS011;64609;47.052;15.462;2022-12-18T06:02:49;37.53;;;20.55;;
75930;SDS011;64609;47.052;15.462;2022-12-18T06:05:15;35.20;;;19.05;;
75930;SDS011;64609;47.052;15.462;2022-12-18T06:07:40;40.85;;;19.65;;
75930;SDS011;64609;47.052;15.462;2022-12-18T06:10:06;36.85;;;19.67;;
75930;SDS011;64609;47.052;15.462;2022-12-18T06:12:32;32.63;;;19.25;;
75930;SDS011;64609;47.052;15.462;2022-12-18T06:14:58;36.92;;;19.13;;
75930;SDS011;64609;47.052;15.462;2022-12-18T06:17:29;33.17;;;19.27;;
75930;SDS011;64609;47.052;15.462;2022-12-18T06:19:55;29.38;;;18.13;;
75930;SDS011;64609;47.052;15.462;2022-12-18T06:22:21;27.50;;;17.25;;
75930;SDS011;64609;47.052;15.462;2022-12-18T06:24:46;32.10;;;18.58;;
75930;SDS011;64609;47.052;15.462;2022-12-18T06:27:12;27.85;;;18.05;;
75930;SDS011;64609;47.052;15.462;2022-12-18T06:29:38;33.05;;;18.83;;
75930;SDS011;64609;47.052;15.462;2022-12-18T06:32:04;32.85;;;17.85;;
75930;SDS011;64609;47.052;15.462;2022-12-18T06:34:30;32.33;;;18.80;;
75930;SDS011;64609;47.052;15.462;2022-12-18T06:36:57;30.60;;;17.13;;
75930;SDS011;64609;47.052;15.462;2022-12-18T06:39:23;28.38;;;18.38;;
75930;SDS011;64609;47.052;15.462;2022-12-18T06:41:49;29.92;;;17.60;;
75930;SDS011;64609;47.052;15.462;2022-12-18T06:44:14;31.25;;;17.73;;
75930;SDS011;64609;47.052;15.462;2022-12-18T06:46:40;28.30;;;16.83;;
75930;SDS011;64609;47.052;15.462;2022-12-18T06:49:06;30.50;;;17.23;;
75930;SDS011;64609;47.052;15.462;2022-12-18T06:51:32;28.08;;;17.15;;
75930;SDS011;64609;47.052;15.462;2022-12-18T06:53:57;29.30;;;16.98;;
75930;SDS011;64609;47.052;15.462;2022-12-18T06:56:23;30.35;;;18.33;;
75930;SDS011;64609;47.052;15.462;2022-12-18T06:58:52;28.45;;;18.15;;
75930;SDS011;64609;47.052;15.462;2022-12-18T07:01:17;29.52;;;16.98;;
75930;SDS011;64609;47.052;15.462;2022-12-18T07:03:43;29.23;;;17.45;;
75930;SDS011;64609;47.052;15.462;2022-12-18T07:06:13;28.80;;;17.70;;
75930;SDS011;64609;47.052;15.462;2022-12-18T07:08:43;28.98;;;17.90;;
75930;SDS011;64609;47.052;15.462;2022-12-18T07:11:08;27.73;;;16.60;;
75930;SDS011;64609;47.052;15.462;2022-12-18T07:13:34;29.63;;;17.25;;
75930;SDS011;64609;47.052;15.462;2022-12-18T07:16:19;28.67;;;18.40;;
75930;SDS011;64609;47.052;15.462;2022-12-18T07:18:45;30.63;;;17.50;;
75930;SDS011;64609;47.052;15.462;2022-12-18T07:21:14;32.70;;;18.23;;
75930;SDS011;64609;47.052;15.462;2022-12-18T07:23:41;30.75;;;17.88;;
75930;SDS011;64609;47.052;15.462;2022-12-18T07:26:08;25.73;;;16.50;;
75930;SDS011;64609;47.052;15.462;2022-12-18T07:28:36;25.65;;;15.68;;
75930;SDS011;64609;47.052;15.462;2022-12-18T07:31:03;24.05;;;15.55;;
75930;SDS011;64609;47.052;15.462;2022-12-18T07:33:31;29.75;;;17.23;;
75930;SDS011;64609;47.052;15.462;2022-12-18T07:35:58;26.25;;;13.88;;
75930;SDS011;64609;47.052;15.462;2022-12-18T07:38:24;19.13;;;11.43;;
75930;SDS011;64609;47.052;15.462;2022-12-18T07:40:50;20.42;;;11.82;;
75930;SDS011;64609;47.052;15.462;2022-12-18T07:43:16;24.02;;;11.43;;
75930;SDS011;64609;47.052;15.462;2022-12-18T07:45:42;19.65;;;11.98;;
75930;SDS011;64609;47.052;15.462;2022-12-18T07:48:07;16.55;;;10.60;;
75930;SDS011;64609;47.052;15.462;2022-12-18T07:50:33;37.72;;;19.80;;
75930;SDS011;64609;47.052;15.462;2022-12-18T07:52:59;33.05;;;16.52;;
75930;SDS011;64609;47.052;15.462;2022-12-18T07:55:28;49.28;;;20.83;;
75930;SDS011;64609;47.052;15.462;2022-12-18T07:57:55;48.92;;;19.65;;
75930;SDS011;64609;47.052;15.462;2022-12-18T08:00:21;20.90;;;12.25;;
75930;SDS011;64609;47.052;15.462;2022-12-18T08:02:47;18.48;;;11.88;;
75930;SDS011;64609;47.052;15.462;2022-12-18T08:05:12;17.63;;;10.63;;
75930;SDS011;64609;47.052;15.462;2022-12-18T08:07:38;14.60;;;9.88;;
75930;SDS011;64609;47.052;15.462;2022-12-18T08:10:04;15.05;;;9.52;;
75930;SDS011;64609;47.052;15.462;2022-12-18T08:12:31;15.35;;;9.63;;
75930;SDS011;64609;47.052;15.462;2022-12-18T08:14:57;15.85;;;10.13;;
75930;SDS011;64609;47.052;15.462;2022-12-18T08:17:22;18.05;;;10.13;;
75930;SDS011;64609;47.052;15.462;2022-12-18T08:19:48;13.18;;;8.82;;
75930;SDS011;64609;47.052;15.462;2022-12-18T08:22:14;16.38;;;9.20;;
75930;SDS011;64609;47.052;15.462;2022-12-18T08:24:39;14.35;;;8.90;;
75930;SDS011;64609;47.052;15.462;2022-12-18T08:27:05;13.88;;;8.80;;
75930;SDS011;64609;47.052;15.462;2022-12-18T08:29:31;12.98;;;8.60;;
75930;SDS011;64609;47.052;15.462;2022-12-18T08:31:57;14.98;;;8.50;;
75930;SDS011;64609;47.052;15.462;2022-12-18T08:34:22;12.23;;;8.68;;
75930;SDS011;64609;47.052;15.462;2022-12-18T08:36:48;15.88;;;9.48;;
75930;SDS011;64609;47.052;15.462;2022-12-18T08:39:13;13.30;;;9.18;;
75930;SDS011;64609;47.052;15.462;2022-12-18T08:41:39;19.13;;;11.25;;
75930;SDS011;64609;47.052;15.462;2022-12-18T08:44:06;14.10;;;9.45;;
75930;SDS011;64609;47.052;15.462;2022-12-18T08:46:51;14.15;;;8.70;;
75930;SDS011;64609;47.052;15.462;2022-12-18T08:49:17;14.65;;;8.82;;
75930;SDS011;64609;47.052;15.462;2022-12-18T08:51:43;14.65;;;9.38;;
75930;SDS011;64609;47.052;15.462;2022-12-18T08:54:10;14.20;;;9.73;;
75930;SDS011;64609;47.052;15.462;2022-12-18T08:56:37;13.25;;;9.35;;
75930;SDS011;64609;47.052;15.462;2022-12-18T08:59:03;17.75;;;10.00;;
75930;SDS011;64609;47.052;15.462;2022-12-18T09:01:29;14.43;;;10.55;;
75930;SDS011;64609;47.052;15.462;2022-12-18T09:03:55;14.82;;;9.73;;
75930;SDS011;64609;47.052;15.462;2022-12-18T09:06:21;14.80;;;10.48;;
75930;SDS011;64609;47.052;15.462;2022-12-18T09:08:48;14.40;;;10.55;;
75930;SDS011;64609;47.052;15.462;2022-12-18T09:13:50;14.25;;;9.95;;
75930;SDS011;64609;47.052;15.462;2022-12-18T09:16:16;12.82;;;8.98;;
75930;SDS011;64609;47.052;15.462;2022-12-18T09:18:42;13.63;;;9.63;;
75930;SDS011;64609;47.052;15.462;2022-12-18T09:21:09;15.07;;;9.63;;
75930;SDS011;64609;47.052;15.462;2022-12-18T09:23:36;11.80;;;8.82;;
75930;SDS011;64609;47.052;15.462;2022-12-18T09:26:01;13.90;;;9.90;;
75930;SDS011;64609;47.052;15.462;2022-12-18T09:28:27;17.05;;;10.10;;
75930;SDS011;64609;47.052;15.462;2022-12-18T09:30:53;13.40;;;9.82;;
75930;SDS011;64609;47.052;15.462;2022-12-18T09:33:19;15.32;;;9.60;;
75930;SDS011;64609;47.052;15.462;2022-12-18T09:35:44;16.63;;;9.65;;
75930;SDS011;64609;47.052;15.462;2022-12-18T09:38:11;13.65;;;9.20;;
75930;SDS011;64609;47.052;15.462;2022-12-18T09:40:43;12.18;;;9.38;;
75930;SDS011;64609;47.052;15.462;2022-12-18T09:43:19;13.00;;;9.55;;
75930;SDS011;64609;47.052;15.462;2022-12-18T09:45:51;15.05;;;10.82;;
75930;SDS011;64609;47.052;15.462;2022-12-18T09:48:34;16.08;;;11.50;;
75930;SDS011;64609;47.052;15.462;2022-12-18T09:51:14;15.75;;;10.75;;
75930;SDS011;64609;47.052;15.462;2022-12-18T09:53:44;15.95;;;12.23;;
75930;SDS011;64609;47.052;15.462;2022-12-18T09:56:19;19.48;;;13.85;;
75930;SDS011;64609;47.052;15.462;2022-12-18T09:58:53;23.70;;;16.38;;
75930;SDS011;64609;47.052;15.462;2022-12-18T10:01:26;25.52;;;17.70;;
75930;SDS011;64609;47.052;15.462;2022-12-18T10:03:52;28.58;;;18.40;;
75930;SDS011;64609;47.052;15.462;2022-12-18T10:19:59;27.60;;;18.85;;
75930;SDS011;64609;47.052;15.462;2022-12-18T10:28:26;29.65;;;20.13;;
75930;SDS011;64609;47.052;15.462;2022-12-18T10:30:54;28.25;;;19.33;;
75930;SDS011;64609;47.052;15.462;2022-12-18T10:33:23;33.13;;;22.02;;
75930;SDS011;64609;47.052;15.462;2022-12-18T10:35:53;31.70;;;21.80;;
75930;SDS011;64609;47.052;15.462;2022-12-18T10:38:24;33.78;;;22.23;;
75930;SDS011;64609;47.052;15.462;2022-12-18T10:46:24;36.72;;;23.02;;
75930;SDS011;64609;47.052;15.462;2022-12-18T10:53:57;35.67;;;21.85;;
75930;SDS011;64609;47.052;15.462;2022-12-18T10:56:27;33.60;;;21.90;;
75930;SDS011;64609;47.052;15.462;2022-12-18T10:59:14;36.20;;;23.00;;
75930;SDS011;64609;47.052;15.462;2022-12-18T11:04:18;34.38;;;21.88;;
75930;SDS011;64609;47.052;15.462;2022-12-18T11:09:21;34.53;;;21.27;;
75930;SDS011;64609;47.052;15.462;2022-12-18T11:11:49;35.40;;;21.95;;
75930;SDS011;64609;47.052;15.462;2022-12-18T11:14:20;35.15;;;22.30;;
75930;SDS011;64609;47.052;15.462;2022-12-18T11:16:52;37.75;;;23.05;;
75930;SDS011;64609;47.052;15.462;2022-12-18T11:19:20;34.53;;;21.58;;
75930;SDS011;64609;47.052;15.462;2022-12-18T11:21:52;42.42;;;25.25;;
75930;SDS011;64609;47.052;15.462;2022-12-18T11:24:31;58.38;;;34.70;;
75930;SDS011;64609;47.052;15.462;2022-12-18T11:27:00;49.95;;;29.67;;
75930;SDS011;64609;47.052;15.462;2022-12-18T11:34:39;62.55;;;34.17;;
75930;SDS011;64609;47.052;15.462;2022-12-18T11:37:09;152.85;;;78.10;;
75930;SDS011;64609;47.052;15.462;2022-12-18T11:39:42;95.40;;;51.80;;
75930;SDS011;64609;47.052;15.462;2022-12-18T11:42:35;51.42;;;29.35;;
75930;SDS011;64609;47.052;15.462;2022-12-18T11:47:55;38.28;;;23.35;;
75930;SDS011;64609;47.052;15.462;2022-12-18T11:50:24;41.85;;;24.92;;
75930;SDS011;64609;47.052;15.462;2022-12-18T11:52:53;45.03;;;27.02;;
75930;SDS011;64609;47.052;15.462;2022-12-18T11:58:05;43.40;;;25.70;;
75930;SDS011;64609;47.052;15.462;2022-12-18T12:00:34;41.30;;;25.60;;
75930;SDS011;64609;47.052;15.462;2022-12-18T12:03:15;45.65;;;26.67;;
75930;SDS011;64609;47.052;15.462;2022-12-18T12:08:57;47.10;;;26.88;;
75930;SDS011;64609;47.052;15.462;2022-12-18T12:14:35;41.17;;;24.80;;
75930;SDS011;64609;47.052;15.462;2022-12-18T12:24:51;43.92;;;25.27;;
75930;SDS011;64609;47.052;15.462;2022-12-18T12:30:35;46.27;;;24.97;;
75930;SDS011;64609;47.052;15.462;2022-12-18T12:36:08;48.38;;;25.40;;
75930;SDS011;64609;47.052;15.462;2022-12-18T12:38:57;42.25;;;24.85;;
75930;SDS011;64609;47.052;15.462;2022-12-18T12:41:32;47.10;;;27.25;;
75930;SDS011;64609;47.052;15.462;2022-12-18T12:44:22;42.08;;;23.90;;
75930;SDS011;64609;47.052;15.462;2022-12-18T12:46:52;45.75;;;25.00;;
75930;SDS011;64609;47.052;15.462;2022-12-18T12:49:26;48.40;;;26.23;;
75930;SDS011;64609;47.052;15.462;2022-12-18T12:52:06;47.50;;;26.33;;
75930;SDS011;64609;47.052;15.462;2022-12-18T12:57:08;45.83;;;24.10;;
75930;SDS011;64609;47.052;15.462;2022-12-18T13:30:59;51.03;;;26.92;;
75930;SDS011;64609;47.052;15.462;2022-12-18T13:36:02;52.95;;;27.30;;
75930;SDS011;64609;47.052;15.462;2022-12-18T13:41:43;51.20;;;26.77;;
75930;SDS011;64609;47.052;15.462;2022-12-18T13:47:05;56.15;;;28.35;;
75930;SDS011;64609;47.052;15.462;2022-12-18T13:49:49;52.58;;;28.58;;
75930;SDS011;64609;47.052;15.462;2022-12-18T13:52:20;58.45;;;29.05;;
75930;SDS011;64609;47.052;15.462;2022-12-18T13:54:52;54.05;;;29.17;;
75930;SDS011;64609;47.052;15.462;2022-12-18T13:57:32;55.28;;;29.05;;
75930;SDS011;64609;47.052;15.462;2022-12-18T14:02:48;55.90;;;27.85;;
75930;SDS011;64609;47.052;15.462;2022-12-18T14:07:50;50.13;;;28.13;;
75930;SDS011;64609;47.052;15.462;2022-12-18T14:10:16;52.40;;;28.75;;
75930;SDS011;64609;47.052;15.462;2022-12-18T14:12:49;56.13;;;29.00;;
75930;SDS011;64609;47.052;15.462;2022-12-18T14:20:46;52.53;;;27.55;;
75930;SDS011;64609;47.052;15.462;2022-12-18T14:26:02;56.80;;;28.42;;
75930;SDS011;64609;47.052;15.462;2022-12-18T14:28:45;51.00;;;28.70;;
75930;SDS011;64609;47.052;15.462;2022-12-18T14:31:18;53.85;;;27.90;;
75930;SDS011;64609;47.052;15.462;2022-12-18T14:33:48;51.45;;;27.52;;
75930;SDS011;64609;47.052;15.462;2022-12-18T14:36:16;50.00;;;26.75;;
75930;SDS011;64609;47.052;15.462;2022-12-18T14:38:53;50.67;;;27.23;;
75930;SDS011;64609;47.052;15.462;2022-12-18T14:41:20;52.65;;;26.92;;
75930;SDS011;64609;47.052;15.462;2022-12-18T14:43:48;54.30;;;28.83;;
75930;SDS011;64609;47.052;15.462;2022-12-18T14:49:26;49.90;;;27.95;;
75930;SDS011;64609;47.052;15.462;2022-12-18T14:52:05;52.92;;;28.15;;
75930;SDS011;64609;47.052;15.462;2022-12-18T14:54:45;49.20;;;26.48;;
75930;SDS011;64609;47.052;15.462;2022-12-18T14:57:22;54.78;;;28.65;;
75930;SDS011;64609;47.052;15.462;2022-12-18T14:59:50;52.40;;;29.02;;
75930;SDS011;64609;47.052;15.462;2022-12-18T15:05:00;50.58;;;31.67;;
75930;SDS011;64609;47.052;15.462;2022-12-18T15:07:40;51.00;;;27.85;;
75930;SDS011;64609;47.052;15.462;2022-12-18T15:10:15;47.58;;;26.15;;
75930;SDS011;64609;47.052;15.462;2022-12-18T15:12:50;46.78;;;25.80;;
75930;SDS011;64609;47.052;15.462;2022-12-18T15:18:03;52.15;;;27.55;;
75930;SDS011;64609;47.052;15.462;2022-12-18T15:20:42;52.50;;;27.58;;
75930;SDS011;64609;47.052;15.462;2022-12-18T15:25:47;48.38;;;25.83;;
75930;SDS011;64609;47.052;15.462;2022-12-18T15:28:27;50.75;;;27.40;;
75930;SDS011;64609;47.052;15.462;2022-12-18T15:34:22;50.63;;;27.08;;
75930;SDS011;64609;47.052;15.462;2022-12-18T15:36:24;49.65;;;26.77;;
75930;SDS011;64609;47.052;15.462;2022-12-18T15:38:54;52.97;;;27.17;;
75930;SDS011;64609;47.052;15.462;2022-12-18T15:41:21;47.58;;;26.67;;
75930;SDS011;64609;47.052;15.462;2022-12-18T15:43:48;48.50;;;27.42;;
75930;SDS011;64609;47.052;15.462;2022-12-18T15:46:16;50.55;;;26.70;;
75930;SDS011;64609;47.052;15.462;2022-12-18T15:48:47;53.88;;;27.70;;
75930;SDS011;64609;47.052;15.462;2022-12-18T15:51:29;54.42;;;29.00;;
75930;SDS011;64609;47.052;15.462;2022-12-18T15:54:01;51.65;;;27.88;;
75930;SDS011;64609;47.052;15.462;2022-12-18T15:56:30;51.20;;;27.73;;
75930;SDS011;64609;47.052;15.462;2022-12-18T15:59:15;53.83;;;28.08;;
75930;SDS011;64609;47.052;15.462;2022-12-18T16:01:43;52.97;;;27.65;;
75930;SDS011;64609;47.052;15.462;2022-12-18T16:04:11;62.25;;;27.52;;
75930;SDS011;64609;47.052;15.462;2022-12-18T16:06:38;44.28;;;25.52;;
75930;SDS011;64609;47.052;15.462;2022-12-18T16:09:04;51.70;;;27.13;;
75930;SDS011;64609;47.052;15.462;2022-12-18T16:11:31;47.20;;;26.38;;
75930;SDS011;64609;47.052;15.462;2022-12-18T16:16:54;50.65;;;28.05;;
75930;SDS011;64609;47.052;15.462;2022-12-18T16:19:22;45.53;;;25.38;;
75930;SDS011;64609;47.052;15.462;2022-12-18T16:21:48;46.92;;;27.40;;
75930;SDS011;64609;47.052;15.462;2022-12-18T16:24:19;48.95;;;27.10;;
75930;SDS011;64609;47.052;15.462;2022-12-18T16:26:49;54.63;;;28.60;;
75930;SDS011;64609;47.052;15.462;2022-12-18T16:29:19;50.90;;;27.75;;
75930;SDS011;64609;47.052;15.462;2022-12-18T16:31:51;48.78;;;26.35;;
75930;SDS011;64609;47.052;15.462;2022-12-18T16:34:31;54.72;;;27.30;;
75930;SDS011;64609;47.052;15.462;2022-12-18T16:37:01;49.85;;;26.95;;
75930;SDS011;64609;47.052;15.462;2022-12-18T16:39:32;51.65;;;27.88;;
75930;SDS011;64609;47.052;15.462;2022-12-18T16:41:59;53.70;;;28.60;;
75930;SDS011;64609;47.052;15.462;2022-12-18T16:44:30;59.15;;;28.73;;
75930;SDS011;64609;47.052;15.462;2022-12-18T16:46:55;55.70;;;30.00;;
75930;SDS011;64609;47.052;15.462;2022-12-18T16:51:52;50.10;;;27.13;;
75930;SDS011;64609;47.052;15.462;2022-12-18T16:54:18;54.95;;;28.73;;
75930;SDS011;64609;47.052;15.462;2022-12-18T16:56:45;53.53;;;27.95;;
75930;SDS011;64609;47.052;15.462;2022-12-18T16:59:14;58.38;;;28.30;;
75930;SDS011;64609;47.052;15.462;2022-12-18T17:01:40;59.20;;;29.85;;
75930;SDS011;64609;47.052;15.462;2022-12-18T17:04:08;59.33;;;29.48;;
75930;SDS011;64609;47.052;15.462;2022-12-18T17:06:35;54.38;;;28.77;;
75930;SDS011;64609;47.052;15.462;2022-12-18T17:09:05;58.22;;;32.53;;
75930;SDS011;64609;47.052;15.462;2022-12-18T17:11:36;58.90;;;30.50;;
75930;SDS011;64609;47.052;15.462;2022-12-18T17:14:06;56.10;;;30.45;;
75930;SDS011;64609;47.052;15.462;2022-12-18T17:16:37;65.00;;;32.47;;